Time;durP1;ratioP1;P1;durP2;ratioP2;P2;SDS_P1;SDS_P2;PMS_P1;PMS_P2;Temp;Humidity;BMP_temperature;BMP_pressure;BME280_temperature;BME280_humidity;BME280_pressure;Samples;Min_cycle;Max_cycle;Signal;HPM_P1;HPM_P2
2022/08/30 00:03:15;;;;;;;1.90;1.80;;;;;;;;;;5069713;28;20252;-76
2022/08/30 00:05:41;;;;;;;1.60;1.60;;;;;;;;;;5067527;28;21888;-76
2022/08/30 00:08:07;;;;;;;1.50;1.50;;;;;;;;;;5073059;28;20222;-75
2022/08/30 00:10:33;;;;;;;2.00;1.90;;;;;;;;;;5070957;28;20230;-76
2022/08/30 00:12:59;;;;;;;1.50;1.50;;;;;;;;;;5072027;28;21073;-75
2022/08/30 00:15:25;;;;;;;1.90;1.80;;;;;;;;;;5045982;28;20228;-75
2022/08/30 00:17:51;;;;;;;1.60;1.60;;;;;;;;;;5066580;28;20309;-76
2022/08/30 00:20:18;;;;;;;1.57;1.57;;;;;;;;;;5065793;28;20225;-76
2022/08/30 00:22:44;;;;;;;1.83;1.73;;;;;;;;;;5075297;28;20238;-76
2022/08/30 00:25:11;;;;;;;2.10;2.00;;;;;;;;;;5067672;28;21174;-76
2022/08/30 00:27:37;;;;;;;1.70;1.70;;;;;;;;;;5064980;28;20653;-76
2022/08/30 00:30:03;;;;;;;1.83;1.73;;;;;;;;;;5069996;28;20218;-75
2022/08/30 00:32:29;;;;;;;2.00;1.90;;;;;;;;;;5063560;28;20183;-76
2022/08/30 00:34:55;;;;;;;1.83;1.73;;;;;;;;;;5082331;28;20287;-76
2022/08/30 00:37:21;;;;;;;1.60;1.60;;;;;;;;;;5066686;28;20231;-76
2022/08/30 00:39:47;;;;;;;1.60;1.60;;;;;;;;;;5064613;28;20203;-76
2022/08/30 00:42:13;;;;;;;1.50;1.50;;;;;;;;;;5063704;28;20707;-76
2022/08/30 00:44:39;;;;;;;1.60;1.60;;;;;;;;;;5068708;28;20210;-76
2022/08/30 00:47:05;;;;;;;1.90;1.80;;;;;;;;;;5063455;28;20198;-76
2022/08/30 00:49:31;;;;;;;1.80;1.70;;;;;;;;;;5078131;28;20220;-76
2022/08/30 00:51:57;;;;;;;1.70;1.70;;;;;;;;;;5085354;28;20251;-76
2022/08/30 00:54:24;;;;;;;1.90;1.80;;;;;;;;;;5060949;28;20230;-76
2022/08/30 00:56:50;;;;;;;1.70;1.70;;;;;;;;;;5061984;28;20257;-77
2022/08/30 00:59:16;;;;;;;1.80;1.70;;;;;;;;;;5064914;28;20317;-77
2022/08/30 01:01:42;;;;;;;1.83;1.73;;;;;;;;;;5060607;28;20239;-74
2022/08/30 01:04:08;;;;;;;1.60;1.60;;;;;;;;;;5074608;28;20250;-73
2022/08/30 01:06:34;;;;;;;1.80;1.70;;;;;;;;;;5066470;28;20237;-75
2022/08/30 01:09:00;;;;;;;1.67;1.67;;;;;;;;;;5085003;28;21098;-74
2022/08/30 01:11:27;;;;;;;1.80;1.70;;;;;;;;;;5062495;28;20233;-74
2022/08/30 01:13:53;;;;;;;2.00;1.90;;;;;;;;;;5075842;28;20226;-74
2022/08/30 01:16:19;;;;;;;1.70;1.70;;;;;;;;;;5061110;28;20221;-74
2022/08/30 01:18:46;;;;;;;1.60;1.60;;;;;;;;;;5062709;28;20234;-75
2022/08/30 01:21:27;;;;;;;1.70;1.70;;;;;;;;;;5065406;28;20223;-74
2022/08/30 01:23:53;;;;;;;1.90;1.80;;;;;;;;;;5050951;28;20270;-75
2022/08/30 01:26:19;;;;;;;2.10;2.00;;;;;;;;;;5073845;28;20254;-75
2022/08/30 01:28:47;;;;;;;2.10;2.00;;;;;;;;;;5060344;28;20623;-74
2022/08/30 01:31:13;;;;;;;2.03;1.93;;;;;;;;;;5062925;28;20208;-75
2022/08/30 01:33:39;;;;;;;1.83;1.77;;;;;;;;;;5058478;28;20246;-74
2022/08/30 01:36:06;;;;;;;2.00;1.90;;;;;;;;;;5058312;28;20378;-74
2022/08/30 01:38:39;;;;;;;1.80;1.70;;;;;;;;;;5073588;28;20231;-74
2022/08/30 01:41:10;;;;;;;1.60;1.60;;;;;;;;;;5050937;28;20229;-74
2022/08/30 01:43:36;;;;;;;1.70;1.70;;;;;;;;;;5067229;28;20312;-75
2022/08/30 01:46:02;;;;;;;1.50;1.50;;;;;;;;;;5060175;28;20233;-75
2022/08/30 01:48:28;;;;;;;1.60;1.60;;;;;;;;;;5077304;28;20314;-75
2022/08/30 01:50:54;;;;;;;1.67;1.63;;;;;;;;;;5060757;28;20270;-74
2022/08/30 01:53:20;;;;;;;1.90;1.80;;;;;;;;;;5067405;28;20291;-75
2022/08/30 01:55:46;;;;;;;1.87;1.77;;;;;;;;;;5076604;28;20287;-74
2022/08/30 01:58:12;;;;;;;2.00;1.90;;;;;;;;;;5071768;28;20963;-75
2022/08/30 02:00:38;;;;;;;2.00;1.90;;;;;;;;;;5062850;28;20223;-75
2022/08/30 02:03:04;;;;;;;1.87;1.77;;;;;;;;;;5065003;28;20237;-75
2022/08/30 02:05:30;;;;;;;1.90;1.80;;;;;;;;;;5037044;28;20337;-75
2022/08/30 02:07:56;;;;;;;1.80;1.70;;;;;;;;;;5058226;28;20245;-75
2022/08/30 02:10:23;;;;;;;1.90;1.80;;;;;;;;;;5043863;28;20210;-74
2022/08/30 02:12:49;;;;;;;1.90;1.80;;;;;;;;;;5027419;28;20233;-76
2022/08/30 02:15:15;;;;;;;1.60;1.60;;;;;;;;;;5044925;28;20218;-74
2022/08/30 02:17:41;;;;;;;1.70;1.70;;;;;;;;;;5036946;28;23330;-74
2022/08/30 02:20:07;;;;;;;2.07;1.97;;;;;;;;;;5046079;28;20202;-74
2022/08/30 02:22:33;;;;;;;1.60;1.60;;;;;;;;;;5046948;28;20291;-75
2022/08/30 02:24:59;;;;;;;1.70;1.70;;;;;;;;;;5064471;28;20223;-74
2022/08/30 02:27:25;;;;;;;1.90;1.80;;;;;;;;;;5047684;28;20211;-74
2022/08/30 02:29:51;;;;;;;1.90;1.80;;;;;;;;;;5043825;28;20221;-75
2022/08/30 02:32:17;;;;;;;1.80;1.70;;;;;;;;;;5018335;28;20222;-75
2022/08/30 02:34:44;;;;;;;2.00;1.90;;;;;;;;;;5039708;28;20318;-74
2022/08/30 02:37:10;;;;;;;1.67;1.67;;;;;;;;;;5041577;28;22161;-74
2022/08/30 02:39:36;;;;;;;1.50;1.50;;;;;;;;;;5042110;28;20258;-74
2022/08/30 02:42:02;;;;;;;1.53;1.53;;;;;;;;;;5044594;28;20737;-74
2022/08/30 02:44:28;;;;;;;1.77;1.70;;;;;;;;;;5041681;28;20239;-74
2022/08/30 02:46:54;;;;;;;1.60;1.60;;;;;;;;;;5039828;28;20313;-74
2022/08/30 02:49:20;;;;;;;1.60;1.60;;;;;;;;;;5041606;28;20256;-74
2022/08/30 02:51:45;;;;;;;1.60;1.60;;;;;;;;;;5040056;28;24318;-74
2022/08/30 02:54:18;;;;;;;1.70;1.70;;;;;;;;;;5015651;28;20262;-75
2022/08/30 02:56:44;;;;;;;1.60;1.60;;;;;;;;;;5057905;28;20222;-75
2022/08/30 02:59:10;;;;;;;1.70;1.70;;;;;;;;;;5053320;28;20613;-75
2022/08/30 03:01:37;;;;;;;1.40;1.40;;;;;;;;;;5057383;28;20788;-75
2022/08/30 03:04:03;;;;;;;1.37;1.37;;;;;;;;;;5030989;28;20222;-75
2022/08/30 03:06:30;;;;;;;1.60;1.60;;;;;;;;;;5033831;28;20306;-74
2022/08/30 03:08:56;;;;;;;1.50;1.50;;;;;;;;;;5040945;28;20683;-75
2022/08/30 03:11:22;;;;;;;1.50;1.50;;;;;;;;;;5043027;28;20201;-74
2022/08/30 03:13:48;;;;;;;1.40;1.40;;;;;;;;;;5054844;28;20683;-74
2022/08/30 03:16:14;;;;;;;1.57;1.57;;;;;;;;;;5036966;28;20225;-75
2022/08/30 03:18:42;;;;;;;1.43;1.43;;;;;;;;;;5043892;28;20292;-75
2022/08/30 03:21:11;;;;;;;1.60;1.60;;;;;;;;;;5041500;28;20218;-75
2022/08/30 03:23:37;;;;;;;1.60;1.60;;;;;;;;;;5041206;28;20223;-74
2022/08/30 03:26:03;;;;;;;1.40;1.40;;;;;;;;;;5035191;28;20291;-75
2022/08/30 03:28:29;;;;;;;1.53;1.53;;;;;;;;;;5044066;28;20435;-75
2022/08/30 03:30:55;;;;;;;1.50;1.50;;;;;;;;;;5059986;28;20234;-74
2022/08/30 03:33:21;;;;;;;1.90;1.80;;;;;;;;;;5038531;28;20229;-74
2022/08/30 03:35:48;;;;;;;1.60;1.60;;;;;;;;;;5017962;28;20238;-75
2022/08/30 03:38:14;;;;;;;1.43;1.43;;;;;;;;;;5019402;28;20227;-74
2022/08/30 03:40:40;;;;;;;1.53;1.53;;;;;;;;;;5048194;27;20277;-75
2022/08/30 03:43:06;;;;;;;1.53;1.53;;;;;;;;;;5028230;28;20296;-75
2022/08/30 03:45:32;;;;;;;1.50;1.50;;;;;;;;;;5041236;28;20225;-75
2022/08/30 03:47:58;;;;;;;1.67;1.67;;;;;;;;;;5049326;28;20218;-75
2022/08/30 03:50:24;;;;;;;1.40;1.40;;;;;;;;;;5026275;28;20704;-75
2022/08/30 03:52:50;;;;;;;0.70;0.70;;;;;;;;;;5046854;28;20214;-75
2022/08/30 03:55:16;;;;;;;0.70;0.70;;;;;;;;;;5047771;28;20218;-75
2022/08/30 03:57:42;;;;;;;0.70;0.70;;;;;;;;;;5035367;28;20807;-76
2022/08/30 04:00:09;;;;;;;0.70;0.70;;;;;;;;;;5039927;28;20225;-74
2022/08/30 04:02:35;;;;;;;0.77;0.77;;;;;;;;;;5074861;28;20218;-75
2022/08/30 04:05:01;;;;;;;0.73;0.73;;;;;;;;;;5083461;28;20214;-76
2022/08/30 04:07:27;;;;;;;0.80;0.80;;;;;;;;;;5057201;28;20250;-75
2022/08/30 04:09:53;;;;;;;0.70;0.70;;;;;;;;;;5074879;28;20262;-74
2022/08/30 04:12:19;;;;;;;0.70;0.70;;;;;;;;;;5059098;28;20291;-75
2022/08/30 04:14:45;;;;;;;0.80;0.80;;;;;;;;;;5067665;28;20219;-74
2022/08/30 04:17:10;;;;;;;1.20;1.20;;;;;;;;;;5040206;28;25752;-74
2022/08/30 04:19:36;;;;;;;1.10;1.10;;;;;;;;;;5060741;28;20222;-74
2022/08/30 04:22:03;;;;;;;1.10;1.10;;;;;;;;;;5052496;28;20210;-74
2022/08/30 04:24:29;;;;;;;1.00;1.00;;;;;;;;;;5042280;28;20219;-73
2022/08/30 04:26:55;;;;;;;1.10;1.10;;;;;;;;;;5063023;28;20288;-73
2022/08/30 04:29:21;;;;;;;1.40;1.40;;;;;;;;;;5052272;28;20820;-73
2022/08/30 04:31:47;;;;;;;1.10;1.10;;;;;;;;;;5050080;28;20226;-74
2022/08/30 04:34:13;;;;;;;1.20;1.20;;;;;;;;;;5070140;28;20199;-74
2022/08/30 04:36:39;;;;;;;1.10;1.10;;;;;;;;;;5038956;28;20238;-74
2022/08/30 04:39:05;;;;;;;1.20;1.20;;;;;;;;;;5046314;28;20232;-74
2022/08/30 04:41:31;;;;;;;1.10;1.10;;;;;;;;;;5062951;28;20230;-74
2022/08/30 04:43:57;;;;;;;1.20;1.20;;;;;;;;;;5049599;28;20211;-74
2022/08/30 04:46:23;;;;;;;1.10;1.10;;;;;;;;;;5035377;28;20221;-74
2022/08/30 04:48:49;;;;;;;1.30;1.30;;;;;;;;;;5054585;28;20222;-75
2022/08/30 04:51:16;;;;;;;1.00;1.00;;;;;;;;;;5049533;28;21417;-75
2022/08/30 04:53:42;;;;;;;1.10;1.10;;;;;;;;;;5068970;28;20194;-74
2022/08/30 04:56:15;;;;;;;1.10;1.10;;;;;;;;;;5060143;28;20236;-73
2022/08/30 04:58:41;;;;;;;1.10;1.10;;;;;;;;;;5071487;28;20223;-73
2022/08/30 05:01:10;;;;;;;1.00;1.00;;;;;;;;;;5067673;28;20269;-73
2022/08/30 05:03:36;;;;;;;1.27;1.27;;;;;;;;;;5066466;28;20324;-74
2022/08/30 05:06:02;;;;;;;1.20;1.20;;;;;;;;;;5052891;28;20202;-74
2022/08/30 05:08:28;;;;;;;1.23;1.23;;;;;;;;;;5071864;28;20190;-74
2022/08/30 05:10:54;;;;;;;1.20;1.20;;;;;;;;;;5072499;28;20276;-73
2022/08/30 05:13:20;;;;;;;1.10;1.10;;;;;;;;;;5062757;28;20242;-73
2022/08/30 05:15:46;;;;;;;1.43;1.43;;;;;;;;;;5056620;28;20217;-73
2022/08/30 05:18:14;;;;;;;1.20;1.20;;;;;;;;;;5048134;28;20223;-75
2022/08/30 05:20:40;;;;;;;1.20;1.20;;;;;;;;;;5072460;28;20237;-76
2022/08/30 05:23:06;;;;;;;1.10;1.10;;;;;;;;;;5056372;28;20305;-76
2022/08/30 05:25:32;;;;;;;1.37;1.37;;;;;;;;;;5054370;28;20235;-75
2022/08/30 05:27:58;;;;;;;1.20;1.20;;;;;;;;;;5057330;28;20210;-74
2022/08/30 05:30:25;;;;;;;1.10;1.10;;;;;;;;;;5055478;28;20312;-75
2022/08/30 05:32:51;;;;;;;1.10;1.10;;;;;;;;;;5070003;28;20218;-75
2022/08/30 05:35:17;;;;;;;1.20;1.20;;;;;;;;;;5074701;28;20233;-75
2022/08/30 05:37:43;;;;;;;1.13;1.13;;;;;;;;;;5065530;28;20235;-75
2022/08/30 05:40:10;;;;;;;1.40;1.40;;;;;;;;;;5078921;28;20219;-74
2022/08/30 05:42:36;;;;;;;1.20;1.20;;;;;;;;;;5067283;28;20224;-75
2022/08/30 05:45:02;;;;;;;1.40;1.40;;;;;;;;;;5073753;28;20277;-75
2022/08/30 05:47:28;;;;;;;1.50;1.50;;;;;;;;;;5059937;28;20190;-75
2022/08/30 05:49:54;;;;;;;1.60;1.60;;;;;;;;;;5077810;28;20722;-76
2022/08/30 05:52:20;;;;;;;1.90;1.80;;;;;;;;;;5065173;28;20205;-75
2022/08/30 05:54:50;;;;;;;1.57;1.57;;;;;;;;;;5061399;28;20222;-75
2022/08/30 05:57:16;;;;;;;1.37;1.37;;;;;;;;;;5058817;28;20194;-75
2022/08/30 05:59:42;;;;;;;1.60;1.60;;;;;;;;;;5069760;28;20242;-75
2022/08/30 06:02:08;;;;;;;1.60;1.60;;;;;;;;;;5063048;28;20202;-75
2022/08/30 06:04:35;;;;;;;1.30;1.30;;;;;;;;;;5055646;28;21168;-76
2022/08/30 06:07:01;;;;;;;1.50;1.50;;;;;;;;;;5069893;28;20206;-75
2022/08/30 06:09:27;;;;;;;1.30;1.30;;;;;;;;;;5079677;28;20229;-76
2022/08/30 06:11:53;;;;;;;1.40;1.40;;;;;;;;;;5076299;28;20206;-75
2022/08/30 06:14:19;;;;;;;1.30;1.30;;;;;;;;;;5078268;28;20298;-72
2022/08/30 06:16:45;;;;;;;1.50;1.50;;;;;;;;;;5098151;28;20600;-72
2022/08/30 06:19:11;;;;;;;1.30;1.30;;;;;;;;;;5100753;28;20233;-72
2022/08/30 06:21:38;;;;;;;1.20;1.20;;;;;;;;;;5097097;28;20227;-72
2022/08/30 06:24:04;;;;;;;1.30;1.30;;;;;;;;;;5099197;28;20215;-72
2022/08/30 06:26:30;;;;;;;1.50;1.50;;;;;;;;;;5085158;28;20198;-72
2022/08/30 06:28:57;;;;;;;1.40;1.40;;;;;;;;;;5102735;28;20224;-72
2022/08/30 06:31:23;;;;;;;1.30;1.30;;;;;;;;;;5103104;28;20233;-72
2022/08/30 06:33:49;;;;;;;1.30;1.30;;;;;;;;;;5103464;28;20207;-72
2022/08/30 06:36:16;;;;;;;1.40;1.40;;;;;;;;;;5086324;28;20237;-72
2022/08/30 06:38:44;;;;;;;1.40;1.40;;;;;;;;;;5097811;28;20311;-72
2022/08/30 06:41:11;;;;;;;1.40;1.40;;;;;;;;;;5095528;28;20240;-72
2022/08/30 06:43:37;;;;;;;1.30;1.30;;;;;;;;;;5097429;28;20233;-72
2022/08/30 06:46:03;;;;;;;1.50;1.50;;;;;;;;;;5094807;28;20198;-72
2022/08/30 06:48:29;;;;;;;1.60;1.60;;;;;;;;;;5096624;28;20193;-72
2022/08/30 06:50:55;;;;;;;1.40;1.40;;;;;;;;;;5097163;28;20572;-72
2022/08/30 06:53:21;;;;;;;1.50;1.50;;;;;;;;;;5096259;28;20247;-72
2022/08/30 06:56:06;;;;;;;1.40;1.40;;;;;;;;;;5086335;28;20191;-73
2022/08/30 06:58:32;;;;;;;1.80;1.70;;;;;;;;;;5074301;28;20223;-72
2022/08/30 07:00:58;;;;;;;1.70;1.70;;;;;;;;;;5079118;28;20219;-72
2022/08/30 07:03:26;;;;;;;1.70;1.70;;;;;;;;;;5096758;28;20203;-72
2022/08/30 07:05:52;;;;;;;1.50;1.50;;;;;;;;;;5097748;28;20183;-72
2022/08/30 07:08:18;;;;;;;1.40;1.40;;;;;;;;;;5066803;28;20186;-72
2022/08/30 07:10:44;;;;;;;1.80;1.70;;;;;;;;;;5095809;28;20190;-72
2022/08/30 07:13:10;;;;;;;1.50;1.50;;;;;;;;;;5096541;28;20191;-72
2022/08/30 07:15:36;;;;;;;1.60;1.60;;;;;;;;;;5080559;28;20205;-72
2022/08/30 07:20:46;;;;;;;1.90;1.80;;;;;;;;;;5098436;28;20197;-72
2022/08/30 07:23:12;;;;;;;1.63;1.63;;;;;;;;;;5094221;28;20179;-73
2022/08/30 07:25:38;;;;;;;1.95;1.85;;;;;;;;;;5079435;28;20701;-72
2022/08/30 07:28:05;;;;;;;1.58;1.58;;;;;;;;;;5082455;28;20222;-72
2022/08/30 07:30:31;;;;;;;1.83;1.73;;;;;;;;;;5091299;28;21782;-72
2022/08/30 07:32:57;;;;;;;1.50;1.50;;;;;;;;;;5094062;28;20577;-73
2022/08/30 07:35:23;;;;;;;1.40;1.40;;;;;;;;;;5094104;28;20234;-73
2022/08/30 07:37:49;;;;;;;1.65;1.65;;;;;;;;;;5081865;28;20241;-72
2022/08/30 07:40:15;;;;;;;1.55;1.55;;;;;;;;;;5090306;28;20210;-72
2022/08/30 07:42:41;;;;;;;1.80;1.70;;;;;;;;;;5079907;28;20203;-72
2022/08/30 07:45:07;;;;;;;1.50;1.50;;;;;;;;;;5091325;28;20272;-72
2022/08/30 07:47:33;;;;;;;1.50;1.50;;;;;;;;;;5093939;28;20701;-73
2022/08/30 07:49:59;;;;;;;1.60;1.60;;;;;;;;;;5094511;28;20199;-73
2022/08/30 07:52:26;;;;;;;1.40;1.40;;;;;;;;;;5093373;28;20240;-73
2022/08/30 07:54:53;;;;;;;1.50;1.50;;;;;;;;;;5073341;28;20280;-73
2022/08/30 07:57:19;;;;;;;1.50;1.50;;;;;;;;;;5070042;28;20217;-73
2022/08/30 07:59:46;;;;;;;1.50;1.50;;;;;;;;;;5093296;28;20229;-73
2022/08/30 08:02:12;;;;;;;1.60;1.60;;;;;;;;;;5074743;28;20225;-73
2022/08/30 08:04:38;;;;;;;1.40;1.40;;;;;;;;;;5078835;28;20214;-72
2022/08/30 08:07:04;;;;;;;1.40;1.40;;;;;;;;;;5090989;28;20280;-73
2022/08/30 08:09:29;;;;;;;1.50;1.50;;;;;;;;;;5080147;28;20292;-73
2022/08/30 08:11:55;;;;;;;1.45;1.45;;;;;;;;;;5077868;28;20226;-73
2022/08/30 08:14:22;;;;;;;1.60;1.60;;;;;;;;;;5081097;28;20280;-73
2022/08/30 08:16:48;;;;;;;1.75;1.67;;;;;;;;;;5097253;28;20854;-73
2022/08/30 08:19:14;;;;;;;1.50;1.50;;;;;;;;;;5076479;28;20266;-73
2022/08/30 08:21:40;;;;;;;1.60;1.60;;;;;;;;;;5097591;28;20190;-73
2022/08/30 08:24:06;;;;;;;1.50;1.50;;;;;;;;;;5091459;28;20194;-73
2022/08/30 08:26:33;;;;;;;1.40;1.40;;;;;;;;;;5093530;28;20244;-72
2022/08/30 08:28:59;;;;;;;1.83;1.73;;;;;;;;;;5097949;28;20291;-73
2022/08/30 08:31:27;;;;;;;1.40;1.40;;;;;;;;;;5083499;28;20207;-73
2022/08/30 08:33:53;;;;;;;1.58;1.58;;;;;;;;;;5094944;28;20694;-73
2022/08/30 08:36:19;;;;;;;1.38;1.38;;;;;;;;;;5097254;28;20233;-73
2022/08/30 08:38:45;;;;;;;1.55;1.55;;;;;;;;;;5091987;28;20256;-73
2022/08/30 08:41:11;;;;;;;1.63;1.63;;;;;;;;;;5080427;28;20214;-73
2022/08/30 08:43:37;;;;;;;1.60;1.60;;;;;;;;;;5094093;28;20213;-72
2022/08/30 08:46:06;;;;;;;1.75;1.70;;;;;;;;;;5096507;28;20229;-73
2022/08/30 08:48:33;;;;;;;1.60;1.60;;;;;;;;;;5093063;28;20261;-73
2022/08/30 08:53:45;;;;;;;1.60;1.60;;;;;;;;;;5078541;28;20214;-73
2022/08/30 08:56:13;;;;;;;1.75;1.70;;;;;;;;;;5080565;28;20194;-73
2022/08/30 08:58:46;;;;;;;1.60;1.60;;;;;;;;;;5077985;28;20291;-73
2022/08/30 09:01:14;;;;;;;1.60;1.60;;;;;;;;;;5095983;28;20675;-73
2022/08/30 09:03:40;;;;;;;1.60;1.60;;;;;;;;;;5080239;28;20179;-73
2022/08/30 09:06:27;;;;;;;1.50;1.50;;;;;;;;;;5093441;28;20233;-73
2022/08/30 09:08:53;;;;;;;1.60;1.60;;;;;;;;;;5096058;28;20211;-72
2022/08/30 09:11:21;;;;;;;1.50;1.50;;;;;;;;;;5086240;28;20219;-73
2022/08/30 09:13:47;;;;;;;1.40;1.40;;;;;;;;;;5077183;28;20214;-73
2022/08/30 09:16:33;;;;;;;1.50;1.50;;;;;;;;;;5064025;28;20215;-72
2022/08/30 09:18:59;;;;;;;1.45;1.45;;;;;;;;;;5092049;28;20266;-73
2022/08/30 09:21:25;;;;;;;1.55;1.55;;;;;;;;;;5094865;28;20230;-73
2022/08/30 09:23:55;;;;;;;1.60;1.60;;;;;;;;;;5073925;28;20236;-73
2022/08/30 09:26:29;;;;;;;1.63;1.63;;;;;;;;;;5093829;28;20256;-73
2022/08/30 09:28:54;;;;;;;1.65;1.65;;;;;;;;;;5081899;28;20229;-73
2022/08/30 09:31:20;;;;;;;1.40;1.40;;;;;;;;;;5081625;28;20264;-74
2022/08/30 09:34:04;;;;;;;1.60;1.60;;;;;;;;;;5094947;28;20191;-73
2022/08/30 09:36:34;;;;;;;1.60;1.60;;;;;;;;;;5081105;28;20270;-73
2022/08/30 09:39:07;;;;;;;1.65;1.65;;;;;;;;;;5095154;28;20249;-73
2022/08/30 09:41:35;;;;;;;1.50;1.50;;;;;;;;;;5079918;28;20779;-73
2022/08/30 09:44:06;;;;;;;1.90;1.80;;;;;;;;;;5087400;28;20206;-72
2022/08/30 09:46:32;;;;;;;1.75;1.70;;;;;;;;;;5096355;28;20285;-73
2022/08/30 09:48:58;;;;;;;1.70;1.70;;;;;;;;;;5093036;28;20301;-73
2022/08/30 09:51:40;;;;;;;1.60;1.60;;;;;;;;;;5093202;28;20202;-73
2022/08/30 09:54:10;;;;;;;1.50;1.50;;;;;;;;;;5089127;27;20227;-73
2022/08/30 09:56:48;;;;;;;1.50;1.50;;;;;;;;;;5075855;28;20195;-73
2022/08/30 09:59:17;;;;;;;1.00;1.00;;;;;;;;;;5095212;28;20229;-73
2022/08/30 10:01:46;;;;;;;0.90;0.90;;;;;;;;;;5095502;28;20206;-73
2022/08/30 10:04:15;;;;;;;1.00;1.00;;;;;;;;;;5074035;28;20725;-73
2022/08/30 10:06:43;;;;;;;1.00;1.00;;;;;;;;;;5091760;28;20274;-73
2022/08/30 10:09:30;;;;;;;0.90;0.90;;;;;;;;;;5095611;28;20245;-73
2022/08/30 10:12:01;;;;;;;1.00;1.00;;;;;;;;;;5077989;28;20221;-74
2022/08/30 10:14:36;;;;;;;0.90;0.90;;;;;;;;;;5075929;28;20182;-73
2022/08/30 10:17:05;;;;;;;0.90;0.90;;;;;;;;;;5074618;28;21005;-73
2022/08/30 10:19:37;;;;;;;1.00;1.00;;;;;;;;;;5092115;28;20222;-73
2022/08/30 10:22:12;;;;;;;0.90;0.90;;;;;;;;;;5088856;28;20201;-73
2022/08/30 10:24:46;;;;;;;0.90;0.90;;;;;;;;;;5087546;28;20648;-73
2022/08/30 10:27:26;;;;;;;0.90;0.90;;;;;;;;;;5084311;28;20267;-73
2022/08/30 10:30:04;;;;;;;0.93;0.93;;;;;;;;;;5076257;28;20236;-73
2022/08/30 10:32:49;;;;;;;0.80;0.80;;;;;;;;;;5073234;28;20557;-73
2022/08/30 10:35:17;;;;;;;0.90;0.90;;;;;;;;;;5092510;28;20260;-73
2022/08/30 10:37:45;;;;;;;0.90;0.90;;;;;;;;;;5073539;28;20229;-73
2022/08/30 10:43:20;;;;;;;0.90;0.90;;;;;;;;;;5091006;28;20627;-73
2022/08/30 10:45:46;;;;;;;0.90;0.90;;;;;;;;;;5077876;28;20215;-73
2022/08/30 10:48:22;;;;;;;0.90;0.90;;;;;;;;;;5089814;28;20279;-74
2022/08/30 10:50:49;;;;;;;0.82;0.82;;;;;;;;;;5081974;28;20625;-73
2022/08/30 10:53:15;;;;;;;0.80;0.80;;;;;;;;;;5075517;28;20301;-73
2022/08/30 10:55:54;;;;;;;0.80;0.80;;;;;;;;;;5087965;28;20305;-74
2022/08/30 10:58:20;;;;;;;0.82;0.82;;;;;;;;;;5074967;28;20219;-74
2022/08/30 11:01:13;;;;;;;0.80;0.80;;;;;;;;;;5070096;28;20236;-73
2022/08/30 11:03:57;;;;;;;0.93;0.93;;;;;;;;;;5068029;28;20297;-73
2022/08/30 11:06:42;;;;;;;1.10;1.10;;;;;;;;;;5085418;28;20211;-74
2022/08/30 11:09:27;;;;;;;0.93;0.93;;;;;;;;;;5087395;28;20201;-73
2022/08/30 11:12:13;;;;;;;0.90;0.90;;;;;;;;;;5090100;28;20285;-74
2022/08/30 11:14:42;;;;;;;0.85;0.85;;;;;;;;;;5079260;28;20273;-74
2022/08/30 11:17:08;;;;;;;0.80;0.80;;;;;;;;;;5056890;28;20663;-74
2022/08/30 11:19:38;;;;;;;0.80;0.80;;;;;;;;;;5075014;28;20230;-73
2022/08/30 11:22:12;;;;;;;0.90;0.90;;;;;;;;;;5069801;28;20221;-74
2022/08/30 11:24:56;;;;;;;1.20;1.20;;;;;;;;;;5074732;28;20213;-73
2022/08/30 11:27:41;;;;;;;1.30;1.30;;;;;;;;;;5083826;28;20226;-74
2022/08/30 11:30:31;;;;;;;1.00;1.00;;;;;;;;;;5068652;28;20286;-74
2022/08/30 11:33:01;;;;;;;1.20;1.20;;;;;;;;;;5066686;28;20741;-76
2022/08/30 11:35:36;;;;;;;1.00;1.00;;;;;;;;;;5071323;28;20691;-76
2022/08/30 11:38:11;;;;;;;1.10;1.10;;;;;;;;;;5083298;28;20223;-75
2022/08/30 11:40:46;;;;;;;1.00;1.00;;;;;;;;;;5069328;28;20182;-72
2022/08/30 11:43:30;;;;;;;1.20;1.20;;;;;;;;;;5068351;28;20213;-75
2022/08/30 11:46:12;;;;;;;1.20;1.20;;;;;;;;;;5069796;28;20244;-73
2022/08/30 11:48:41;;;;;;;1.00;1.00;;;;;;;;;;5075739;28;20246;-75
2022/08/30 11:51:10;;;;;;;1.00;1.00;;;;;;;;;;5071190;28;20224;-75
2022/08/30 11:53:44;;;;;;;1.20;1.20;;;;;;;;;;5078555;28;20194;-75
2022/08/30 11:56:20;;;;;;;1.10;1.10;;;;;;;;;;5087932;28;20213;-73
2022/08/30 11:58:49;;;;;;;1.30;1.30;;;;;;;;;;5077009;28;20213;-73
2022/08/30 12:01:20;;;;;;;1.13;1.13;;;;;;;;;;5060153;28;20294;-75
2022/08/30 12:03:55;;;;;;;1.50;1.50;;;;;;;;;;5076118;28;20191;-74
2022/08/30 12:06:39;;;;;;;1.40;1.40;;;;;;;;;;5094853;28;20222;-73
2022/08/30 12:09:06;;;;;;;1.48;1.48;;;;;;;;;;5092319;28;20221;-74
2022/08/30 12:11:32;;;;;;;1.40;1.40;;;;;;;;;;5074708;28;20197;-74
2022/08/30 12:13:58;;;;;;;1.48;1.48;;;;;;;;;;5092546;28;20222;-75
2022/08/30 12:16:34;;;;;;;1.40;1.40;;;;;;;;;;5076005;28;20222;-74
2022/08/30 12:19:17;;;;;;;1.40;1.40;;;;;;;;;;5075414;28;20218;-73
2022/08/30 12:21:43;;;;;;;1.50;1.50;;;;;;;;;;5056273;28;20290;-73
2022/08/30 12:24:17;;;;;;;1.40;1.40;;;;;;;;;;5079804;28;20186;-74
2022/08/30 12:26:44;;;;;;;1.30;1.30;;;;;;;;;;5071604;28;20206;-74
2022/08/30 12:29:14;;;;;;;1.40;1.40;;;;;;;;;;5070564;28;20840;-74
2022/08/30 12:31:43;;;;;;;1.30;1.30;;;;;;;;;;5067783;28;20326;-73
2022/08/30 12:34:10;;;;;;;1.30;1.30;;;;;;;;;;5090278;28;20183;-74
2022/08/30 12:36:38;;;;;;;1.40;1.40;;;;;;;;;;5055009;28;20286;-75
2022/08/30 12:39:33;;;;;;;1.60;1.60;;;;;;;;;;5061079;28;20214;-74
2022/08/30 12:42:13;;;;;;;1.40;1.40;;;;;;;;;;5061249;28;20415;-75
2022/08/30 12:44:39;;;;;;;1.35;1.35;;;;;;;;;;5065042;28;20264;-74
2022/08/30 12:47:05;;;;;;;1.38;1.38;;;;;;;;;;5069935;28;20222;-75
2022/08/30 12:49:31;;;;;;;1.40;1.40;;;;;;;;;;5063288;28;20694;-73
2022/08/30 12:52:14;;;;;;;1.40;1.40;;;;;;;;;;5069252;28;20212;-75
2022/08/30 12:54:40;;;;;;;1.45;1.45;;;;;;;;;;5060739;28;20189;-73
2022/08/30 12:57:06;;;;;;;1.35;1.35;;;;;;;;;;5066756;28;20222;-75
2022/08/30 12:59:39;;;;;;;1.30;1.30;;;;;;;;;;5083353;28;20289;-76
2022/08/30 13:02:16;;;;;;;1.30;1.30;;;;;;;;;;5068751;28;20214;-74
2022/08/30 13:04:42;;;;;;;1.38;1.38;;;;;;;;;;5082157;28;20226;-75
2022/08/30 13:07:08;;;;;;;1.30;1.30;;;;;;;;;;5067283;28;20240;-74
2022/08/30 13:09:37;;;;;;;1.30;1.30;;;;;;;;;;5085712;28;20226;-74
2022/08/30 13:12:10;;;;;;;1.23;1.23;;;;;;;;;;5071937;28;20226;-76
2022/08/30 13:14:38;;;;;;;1.20;1.20;;;;;;;;;;5087363;28;20190;-75
2022/08/30 13:17:19;;;;;;;1.33;1.33;;;;;;;;;;5069717;28;20321;-75
2022/08/30 13:19:55;;;;;;;1.20;1.20;;;;;;;;;;5070835;28;20217;-74
2022/08/30 13:22:28;;;;;;;1.20;1.20;;;;;;;;;;5069447;28;20524;-75
2022/08/30 13:24:54;;;;;;;1.10;1.10;;;;;;;;;;5078809;28;20221;-74
2022/08/30 13:27:20;;;;;;;1.20;1.20;;;;;;;;;;5082502;28;20247;-74
2022/08/30 13:29:46;;;;;;;1.20;1.20;;;;;;;;;;5073014;28;20179;-75
2022/08/30 13:32:12;;;;;;;1.10;1.10;;;;;;;;;;5067198;28;20229;-74
2022/08/30 13:34:38;;;;;;;1.10;1.10;;;;;;;;;;5067981;28;20191;-75
2022/08/30 13:37:06;;;;;;;1.10;1.10;;;;;;;;;;5063159;28;20178;-75
2022/08/30 13:39:32;;;;;;;1.10;1.10;;;;;;;;;;5040527;28;21405;-75
2022/08/30 13:41:58;;;;;;;1.10;1.10;;;;;;;;;;5083042;28;20194;-75
2022/08/30 13:44:24;;;;;;;1.17;1.17;;;;;;;;;;5085181;28;20222;-76
2022/08/30 13:46:55;;;;;;;1.02;1.02;;;;;;;;;;5084534;28;20555;-74
2022/08/30 13:49:22;;;;;;;1.10;1.10;;;;;;;;;;5068898;28;20202;-76
2022/08/30 13:51:52;;;;;;;0.98;0.98;;;;;;;;;;5065753;28;20277;-73
2022/08/30 13:54:20;;;;;;;1.00;1.00;;;;;;;;;;5079981;28;20277;-76
2022/08/30 13:56:47;;;;;;;1.00;1.00;;;;;;;;;;5078784;28;20299;-74
2022/08/30 13:59:13;;;;;;;1.00;1.00;;;;;;;;;;5070289;28;20593;-75
2022/08/30 14:01:39;;;;;;;1.08;1.08;;;;;;;;;;5070456;28;20198;-74
2022/08/30 14:04:05;;;;;;;1.10;1.10;;;;;;;;;;5078489;28;20621;-73
2022/08/30 14:06:31;;;;;;;1.00;1.00;;;;;;;;;;5087781;28;20226;-74
2022/08/30 14:08:57;;;;;;;1.15;1.15;;;;;;;;;;5083840;28;20207;-75
2022/08/30 14:11:23;;;;;;;1.10;1.10;;;;;;;;;;5074235;28;20194;-75
2022/08/30 14:13:49;;;;;;;1.10;1.10;;;;;;;;;;5091999;28;20213;-74
2022/08/30 14:16:15;;;;;;;1.10;1.10;;;;;;;;;;5086249;28;20271;-75
2022/08/30 14:18:41;;;;;;;1.10;1.10;;;;;;;;;;5082709;28;20222;-75
2022/08/30 14:21:07;;;;;;;1.30;1.30;;;;;;;;;;5072459;28;20228;-76
2022/08/30 14:23:33;;;;;;;1.27;1.27;;;;;;;;;;5081221;28;20297;-75
2022/08/30 14:25:59;;;;;;;1.13;1.13;;;;;;;;;;5069924;28;20221;-74
2022/08/30 14:28:27;;;;;;;1.10;1.10;;;;;;;;;;5066728;28;20261;-74
2022/08/30 14:30:53;;;;;;;1.10;1.10;;;;;;;;;;5082637;28;20919;-73
2022/08/30 14:33:19;;;;;;;1.30;1.30;;;;;;;;;;5070280;28;20210;-75
2022/08/30 14:35:45;;;;;;;1.10;1.10;;;;;;;;;;5064871;28;20231;-73
2022/08/30 14:38:11;;;;;;;1.10;1.10;;;;;;;;;;5079020;28;20226;-74
2022/08/30 14:40:39;;;;;;;1.20;1.20;;;;;;;;;;5085000;28;20234;-76
2022/08/30 14:43:05;;;;;;;1.17;1.17;;;;;;;;;;5063083;28;20627;-74
2022/08/30 14:45:31;;;;;;;1.20;1.20;;;;;;;;;;5073924;28;20203;-73
2022/08/30 14:47:57;;;;;;;1.10;1.10;;;;;;;;;;5059976;28;20214;-74
2022/08/30 14:50:23;;;;;;;1.17;1.17;;;;;;;;;;5074851;28;20288;-76
2022/08/30 14:52:49;;;;;;;1.30;1.30;;;;;;;;;;5064703;28;20198;-75
2022/08/30 14:55:15;;;;;;;1.30;1.30;;;;;;;;;;5064123;28;20853;-74
2022/08/30 14:57:41;;;;;;;1.30;1.30;;;;;;;;;;5051796;28;20345;-75
2022/08/30 15:00:08;;;;;;;1.35;1.35;;;;;;;;;;5063780;28;20226;-74